Time;durP1;ratioP1;P1;durP2;ratioP2;P2;SDS_P1;SDS_P2;PMS_P1;PMS_P2;Temp;Humidity;BMP_temperature;BMP_pressure;BME280_temperature;BME280_humidity;BME280_pressure;Samples;Min_cycle;Max_cycle;Signal;HPM_P1;HPM_P2
2021/05/18 00:00:45;;;;;;;2.03;1.93;;;11.80;99.90;;;;;;5059819;28;20402;-82
2021/05/18 00:03:12;;;;;;;2.30;2.10;;;11.90;99.90;;;;;;5061055;28;20194;-83
2021/05/18 00:05:41;;;;;;;2.40;2.00;;;11.90;99.90;;;;;;5061063;28;20864;-82
2021/05/18 00:08:09;;;;;;;2.20;1.83;;;11.90;99.90;;;;;;5061105;28;20472;-82
2021/05/18 00:13:24;;;;;;;1.70;1.60;;;11.80;99.90;;;;;;5062028;28;20394;-82
2021/05/18 00:15:52;;;;;;;3.70;1.90;;;11.90;99.90;;;;;;5064344;28;20421;-82
2021/05/18 00:18:18;;;;;;;2.23;2.03;;;11.80;99.90;;;;;;5065609;28;20398;-83
2021/05/18 00:20:45;;;;;;;1.73;1.63;;;11.80;99.90;;;;;;5065133;28;20395;-82
2021/05/18 00:23:12;;;;;;;1.83;1.73;;;11.90;99.90;;;;;;5066092;28;20449;-82
2021/05/18 00:25:39;;;;;;;2.10;2.00;;;12.00;99.90;;;;;;5072985;28;20398;-82
2021/05/18 00:28:05;;;;;;;2.10;1.80;;;12.00;99.90;;;;;;5073314;28;20495;-82
2021/05/18 00:30:31;;;;;;;3.93;1.40;;;12.10;99.90;;;;;;5076198;28;20430;-82
2021/05/18 00:32:57;;;;;;;1.70;1.60;;;12.00;99.90;;;;;;5076847;28;20437;-82
2021/05/18 00:35:23;;;;;;;1.47;1.37;;;12.10;99.90;;;;;;5070381;28;20403;-82
2021/05/18 00:37:49;;;;;;;1.90;1.80;;;12.20;99.90;;;;;;5065431;28;20165;-83
2021/05/18 00:40:17;;;;;;;1.90;1.80;;;12.20;99.90;;;;;;5065863;28;20164;-82
2021/05/18 00:42:53;;;;;;;1.83;1.73;;;12.10;99.90;;;;;;5064841;28;20854;-83
2021/05/18 00:45:32;;;;;;;1.77;1.67;;;12.20;99.90;;;;;;5064594;28;20402;-82
2021/05/18 00:47:59;;;;;;;2.07;1.87;;;12.10;99.90;;;;;;5065225;28;20436;-82
2021/05/18 00:50:25;;;;;;;2.20;2.00;;;12.10;99.90;;;;;;5047141;28;20399;-82
2021/05/18 00:52:51;;;;;;;2.20;2.10;;;11.90;99.90;;;;;;5065543;28;20395;-82
2021/05/18 00:55:22;;;;;;;3.73;2.03;;;12.00;99.90;;;;;;5065458;28;20410;-82
2021/05/18 01:00:26;;;;;;;2.20;2.00;;;12.00;99.90;;;;;;5065184;28;20408;-82
2021/05/18 01:02:51;;;;;;;3.27;1.90;;;12.10;99.90;;;;;;5064112;28;20518;-82
2021/05/18 01:05:20;;;;;;;1.93;1.83;;;12.10;99.90;;;;;;5064185;28;20167;-82
2021/05/18 01:07:47;;;;;;;2.60;1.53;;;12.00;99.90;;;;;;5064366;28;20203;-81
2021/05/18 01:10:15;;;;;;;2.33;2.00;;;12.00;99.90;;;;;;5064710;28;20399;-82
2021/05/18 01:12:41;;;;;;;1.90;1.80;;;12.00;99.90;;;;;;5064453;28;20870;-82
2021/05/18 01:15:09;;;;;;;2.60;2.40;;;11.80;99.90;;;;;;5063364;28;20409;-82
2021/05/18 01:17:36;;;;;;;2.53;2.33;;;11.80;99.90;;;;;;5063878;28;20429;-82
2021/05/18 01:20:11;;;;;;;5.13;2.27;;;11.80;99.90;;;;;;5065055;28;20407;-82
2021/05/18 01:22:36;;;;;;;3.57;3.03;;;11.80;99.90;;;;;;5063699;28;20469;-82
2021/05/18 01:25:05;;;;;;;2.90;2.10;;;11.80;99.90;;;;;;5064499;28;20395;-82
2021/05/18 01:27:31;;;;;;;2.40;1.90;;;11.80;99.90;;;;;;5063035;28;20398;-82
2021/05/18 01:29:57;;;;;;;2.20;2.00;;;11.80;99.90;;;;;;5064731;28;20721;-82
2021/05/18 01:32:25;;;;;;;2.27;2.10;;;11.90;99.90;;;;;;5064203;28;20406;-82
2021/05/18 01:34:51;;;;;;;2.60;1.80;;;11.80;99.90;;;;;;5063659;28;20168;-82
2021/05/18 01:37:17;;;;;;;3.30;3.00;;;11.90;99.90;;;;;;5064231;28;20399;-82
2021/05/18 01:40:08;;;;;;;2.73;2.53;;;11.90;99.90;;;;;;5064084;28;20399;-82
2021/05/18 01:45:16;;;;;;;2.23;2.13;;;11.80;99.90;;;;;;5064011;28;20399;-82
2021/05/18 01:47:49;;;;;;;3.53;2.57;;;11.90;99.90;;;;;;5064233;28;20706;-83
2021/05/18 01:50:17;;;;;;;2.70;2.50;;;11.90;99.90;;;;;;5063520;28;20398;-83
2021/05/18 01:52:43;;;;;;;15.83;2.70;;;11.80;99.90;;;;;;5064802;28;20441;-82
2021/05/18 01:55:10;;;;;;;2.37;2.17;;;11.70;99.90;;;;;;5064438;28;20403;-83
2021/05/18 01:57:36;;;;;;;2.60;2.40;;;11.80;99.90;;;;;;5066475;28;20661;-83
2021/05/18 02:00:04;;;;;;;8.20;3.37;;;11.80;99.90;;;;;;5066764;28;20429;-82
2021/05/18 02:02:30;;;;;;;4.10;2.23;;;11.80;99.90;;;;;;5065344;28;20187;-82
2021/05/18 02:05:01;;;;;;;3.80;2.93;;;11.80;99.90;;;;;;5064437;28;20398;-82
2021/05/18 02:07:31;;;;;;;3.00;2.70;;;11.70;99.90;;;;;;5067103;28;20196;-80
2021/05/18 02:09:57;;;;;;;3.57;2.70;;;11.60;99.90;;;;;;5073365;28;20435;-80
2021/05/18 02:12:23;;;;;;;3.00;2.40;;;11.60;99.90;;;;;;5073383;28;20466;-80
2021/05/18 02:14:55;;;;;;;2.70;2.50;;;11.70;99.90;;;;;;5071622;28;20488;-82
2021/05/18 02:20:21;;;;;;;2.70;2.50;;;11.60;99.90;;;;;;5063672;28;20453;-83
2021/05/18 02:25:31;;;;;;;4.30;2.53;;;11.70;99.90;;;;;;5062960;28;20390;-83
2021/05/18 02:27:58;;;;;;;4.40;3.43;;;11.60;99.90;;;;;;5063678;28;20871;-82
2021/05/18 02:30:25;;;;;;;2.93;2.63;;;11.70;99.90;;;;;;5062563;28;20171;-82
2021/05/18 02:32:52;;;;;;;3.67;3.27;;;11.70;99.90;;;;;;5063568;28;20430;-81
2021/05/18 02:35:19;;;;;;;3.00;2.73;;;11.70;99.90;;;;;;5063049;28;20414;-83
2021/05/18 02:37:48;;;;;;;2.93;2.70;;;11.60;99.90;;;;;;5063966;28;20410;-83
2021/05/18 02:40:20;;;;;;;4.40;4.00;;;11.60;99.90;;;;;;5061996;28;20438;-83
2021/05/18 02:42:48;;;;;;;4.30;3.40;;;11.50;99.90;;;;;;5061591;28;20481;-83
2021/05/18 02:45:23;;;;;;;3.50;3.20;;;11.40;99.90;;;;;;5063222;28;20519;-83
2021/05/18 02:50:26;;;;;;;3.27;2.97;;;11.50;99.90;;;;;;5062948;28;20398;-83
2021/05/18 02:52:52;;;;;;;4.63;2.90;;;11.60;99.90;;;;;;5063086;28;20406;-83
2021/05/18 02:55:25;;;;;;;5.23;3.40;;;11.60;99.90;;;;;;5069200;28;20406;-80
2021/05/18 02:57:52;;;;;;;2.73;2.53;;;11.60;99.90;;;;;;5074127;28;20149;-79
2021/05/18 03:00:20;;;;;;;9.93;3.33;;;11.70;99.90;;;;;;5073633;28;20395;-80
2021/05/18 03:02:48;;;;;;;3.73;2.53;;;11.70;99.90;;;;;;5073490;28;20439;-79
2021/05/18 03:05:14;;;;;;;3.40;3.10;;;11.70;99.90;;;;;;5064616;28;20399;-82
2021/05/18 03:07:40;;;;;;;3.07;2.87;;;11.70;99.90;;;;;;5062736;28;20477;-82
2021/05/18 03:10:07;;;;;;;2.90;2.70;;;11.60;99.90;;;;;;5062993;28;20522;-82
2021/05/18 03:12:32;;;;;;;2.90;2.70;;;11.70;99.90;;;;;;5062471;28;20407;-82
2021/05/18 03:14:58;;;;;;;3.63;2.83;;;11.70;99.90;;;;;;5062481;28;20413;-82
2021/05/18 03:17:25;;;;;;;2.90;2.70;;;11.70;99.90;;;;;;5062400;28;20164;-82
2021/05/18 03:19:51;;;;;;;7.87;2.90;;;11.60;99.90;;;;;;5061514;28;20196;-82
2021/05/18 03:22:17;;;;;;;4.57;3.73;;;11.50;99.90;;;;;;5061688;28;20446;-82
2021/05/18 03:24:42;;;;;;;6.53;3.53;;;11.60;99.90;;;;;;5063185;28;20164;-82
2021/05/18 03:27:10;;;;;;;3.00;2.80;;;11.70;99.90;;;;;;5061306;28;20160;-82
2021/05/18 03:29:36;;;;;;;4.13;3.07;;;11.50;99.90;;;;;;5062148;28;20409;-82
2021/05/18 03:34:45;;;;;;;4.70;2.93;;;11.20;99.90;;;;;;5062562;28;20402;-82
2021/05/18 03:37:17;;;;;;;6.67;5.00;;;11.40;99.90;;;;;;5061480;28;20449;-82
2021/05/18 03:39:45;;;;;;;2.93;2.73;;;11.60;99.90;;;;;;5062212;28;20394;-82
2021/05/18 03:42:17;;;;;;;2.40;2.20;;;11.20;99.90;;;;;;5062148;28;20501;-82
2021/05/18 03:53:00;;;;;;;3.20;3.00;;;11.10;99.90;;;;;;5061904;28;20406;-82
2021/05/18 04:03:55;;;;;;;12.17;2.63;;;11.10;99.90;;;;;;5060795;28;20457;-81
2021/05/18 04:11:51;;;;;;;5.37;3.07;;;11.20;99.90;;;;;;5061595;28;20397;-81
2021/05/18 04:17:03;;;;;;;5.83;2.70;;;11.30;99.90;;;;;;5060880;28;20399;-81
2021/05/18 04:19:34;;;;;;;3.93;3.60;;;11.20;99.90;;;;;;5061339;28;20406;-80
2021/05/18 04:22:27;;;;;;;4.10;2.83;;;11.40;99.90;;;;;;5061382;28;20453;-81
2021/05/18 04:25:05;;;;;;;3.93;2.80;;;11.30;99.90;;;;;;5060135;28;20410;-81
2021/05/18 04:41:11;;;;;;;2.70;2.50;;;11.50;99.90;;;;;;5061225;28;20867;-81
2021/05/18 04:51:44;;;;;;;4.70;3.40;;;11.70;99.90;;;;;;5061182;28;20460;-81
2021/05/18 04:54:50;;;;;;;3.40;3.10;;;11.80;99.90;;;;;;5060937;28;20460;-81
2021/05/18 05:08:01;;;;;;;2.57;2.37;;;12.00;99.90;;;;;;5065347;28;20438;-80
2021/05/18 05:15:48;;;;;;;3.77;2.47;;;12.10;99.90;;;;;;5061810;28;20559;-80
2021/05/18 05:18:14;;;;;;;2.97;2.77;;;12.20;99.90;;;;;;5061569;28;20438;-80
2021/05/18 05:20:40;;;;;;;5.57;2.73;;;12.30;99.90;;;;;;5062739;28;20168;-80
2021/05/18 05:23:06;;;;;;;2.70;2.50;;;12.20;99.90;;;;;;5062229;28;20188;-80
2021/05/18 05:25:32;;;;;;;2.80;2.60;;;12.30;99.90;;;;;;5062345;28;20395;-81
2021/05/18 05:27:58;;;;;;;2.33;2.17;;;12.30;99.90;;;;;;5062142;28;20448;-80
2021/05/18 05:30:24;;;;;;;4.20;3.10;;;12.20;99.90;;;;;;5060392;28;20403;-80
2021/05/18 05:32:50;;;;;;;2.97;2.70;;;12.20;99.90;;;;;;5062866;28;20402;-80
2021/05/18 05:35:16;;;;;;;2.83;2.63;;;12.20;99.90;;;;;;5061909;28;20168;-81
2021/05/18 05:37:42;;;;;;;3.00;2.70;;;12.10;99.90;;;;;;5062322;28;20164;-80
2021/05/18 05:40:11;;;;;;;2.47;2.27;;;12.00;99.90;;;;;;5063741;28;20422;-80
2021/05/18 05:42:37;;;;;;;2.90;2.70;;;12.10;99.90;;;;;;5046301;28;20585;-80
2021/05/18 05:45:04;;;;;;;2.63;2.43;;;12.40;99.90;;;;;;5063415;28;20490;-80
2021/05/18 05:47:32;;;;;;;6.43;2.63;;;12.50;99.90;;;;;;5062572;28;20176;-80
2021/05/18 05:49:58;;;;;;;2.43;2.23;;;12.50;99.90;;;;;;5066113;28;20422;-81
2021/05/18 05:52:23;;;;;;;5.40;2.60;;;12.50;99.90;;;;;;5063188;28;20824;-80
2021/05/18 05:54:51;;;;;;;2.63;2.43;;;12.50;99.90;;;;;;5076156;28;20167;-81
2021/05/18 05:57:18;;;;;;;3.33;3.03;;;12.40;99.90;;;;;;5070197;28;20465;-81
2021/05/18 05:59:45;;;;;;;2.53;2.23;;;12.30;99.90;;;;;;5068897;28;20413;-80
2021/05/18 06:02:10;;;;;;;3.00;2.37;;;12.30;99.90;;;;;;5078945;28;20478;-79
2021/05/18 06:04:36;;;;;;;3.03;2.03;;;12.10;99.90;;;;;;5061737;28;20437;-80
2021/05/18 06:07:02;;;;;;;2.50;2.30;;;12.20;99.90;;;;;;5071980;28;20160;-80
2021/05/18 06:09:28;;;;;;;2.20;1.90;;;12.30;99.90;;;;;;5072080;28;20640;-81
2021/05/18 06:12:01;;;;;;;2.37;2.17;;;12.10;99.90;;;;;;5081359;28;20575;-80
2021/05/18 06:17:52;;;;;;;2.13;2.03;;;12.00;99.90;;;;;;5079335;28;20847;-79
2021/05/18 06:47:09;;;;;;;2.40;2.20;;;13.40;99.90;;;;;;5076590;28;20417;-78
2021/05/18 06:49:39;;;;;;;1.97;1.77;;;13.40;99.90;;;;;;5069600;28;20414;-78
2021/05/18 06:52:05;;;;;;;2.27;1.67;;;13.50;99.90;;;;;;5088796;28;20445;-80
2021/05/18 06:54:31;;;;;;;2.13;1.60;;;13.40;99.90;;;;;;5084683;28;20409;-82
2021/05/18 06:57:00;;;;;;;2.13;1.30;;;13.50;99.90;;;;;;5065409;28;20776;-82
2021/05/18 07:02:07;;;;;;;1.93;1.60;;;13.60;99.90;;;;;;5072647;28;20468;-79
2021/05/18 07:04:36;;;;;;;2.07;1.50;;;13.60;99.90;;;;;;5084712;28;20402;-82
2021/05/18 07:07:09;;;;;;;2.53;1.60;;;13.70;99.90;;;;;;5074767;28;20737;-79
2021/05/18 07:09:35;;;;;;;5.03;1.50;;;13.40;99.90;;;;;;5072016;28;20485;-80
2021/05/18 07:12:01;;;;;;;1.80;1.70;;;13.40;99.90;;;;;;5077316;28;20482;-80
2021/05/18 07:14:27;;;;;;;4.67;1.97;;;13.50;99.90;;;;;;5065832;28;20172;-80
2021/05/18 07:16:55;;;;;;;1.73;1.63;;;13.70;99.90;;;;;;5064082;28;20172;-80
2021/05/18 07:19:21;;;;;;;1.70;1.60;;;13.70;99.90;;;;;;5062556;28;20201;-79
2021/05/18 07:21:47;;;;;;;1.40;1.30;;;13.70;99.90;;;;;;5063575;28;20430;-81
2021/05/18 07:24:19;;;;;;;4.53;1.97;;;13.70;99.90;;;;;;5064445;28;20220;-81
2021/05/18 07:26:45;;;;;;;1.50;1.40;;;13.50;99.90;;;;;;5062487;28;20452;-81
2021/05/18 07:29:11;;;;;;;1.70;1.60;;;13.80;99.90;;;;;;5063792;28;20460;-81
2021/05/18 07:31:37;;;;;;;2.10;1.57;;;13.60;99.90;;;;;;5078247;28;20898;-82
2021/05/18 07:34:03;;;;;;;2.13;1.60;;;13.90;99.90;;;;;;5083441;28;20222;-81
2021/05/18 07:36:29;;;;;;;1.53;1.43;;;14.00;99.90;;;;;;5083218;28;20159;-81
2021/05/18 07:38:56;;;;;;;1.87;1.50;;;13.90;99.90;;;;;;5083465;28;20410;-82
2021/05/18 07:41:22;;;;;;;2.50;1.40;;;13.90;99.90;;;;;;5083017;28;20771;-81
2021/05/18 07:43:48;;;;;;;1.70;1.50;;;14.00;99.90;;;;;;5084119;28;20445;-81
2021/05/18 07:46:23;;;;;;;2.13;1.60;;;13.90;99.90;;;;;;5082199;28;20422;-81
2021/05/18 07:59:15;;;;;;;3.90;2.40;;;14.00;99.90;;;;;;5069380;28;20433;-81
2021/05/18 07:59:52;;;;;;;2.60;1.70;;;14.00;99.90;;;;;;5062082;28;20512;-81
2021/05/18 08:02:26;;;;;;;3.13;2.17;;;14.10;99.90;;;;;;5063968;28;20457;-81
2021/05/18 08:07:36;;;;;;;3.10;1.60;;;14.40;99.90;;;;;;5062611;28;20492;-81
2021/05/18 08:10:11;;;;;;;2.20;1.80;;;14.00;99.90;;;;;;5074275;28;20422;-81
2021/05/18 08:12:37;;;;;;;4.27;2.53;;;14.30;99.90;;;;;;5082020;28;20405;-80
2021/05/18 08:15:31;;;;;;;2.20;1.60;;;14.10;99.90;;;;;;5083991;28;20402;-81
2021/05/18 10:15:29;;;;;;;1.97;1.87;;;15.80;99.90;;;;;;5059408;28;20403;-83
2021/05/18 10:36:38;;;;;;;1.30;1.20;;;15.80;99.90;;;;;;5059032;28;20422;-83
2021/05/18 10:39:22;;;;;;;3.43;1.70;;;15.60;99.90;;;;;;5059024;28;20735;-83
2021/05/18 10:41:49;;;;;;;2.00;1.80;;;15.50;99.90;;;;;;5057693;28;20762;-83
2021/05/18 10:44:16;;;;;;;1.70;1.60;;;15.20;99.90;;;;;;5090982;28;20414;-83
2021/05/18 10:46:59;;;;;;;1.53;1.43;;;15.30;99.90;;;;;;5080320;28;20899;-83
2021/05/18 10:49:36;;;;;;;1.50;1.40;;;15.40;99.90;;;;;;5044485;28;20483;-83
2021/05/18 10:52:06;;;;;;;1.40;1.30;;;15.30;99.90;;;;;;5043295;28;20430;-83
2021/05/18 10:54:35;;;;;;;1.83;1.73;;;15.90;99.90;;;;;;5042148;28;20938;-83
2021/05/18 10:57:06;;;;;;;1.67;1.57;;;16.10;99.90;;;;;;5037918;28;20850;-83
2021/05/18 10:59:56;;;;;;;1.70;1.60;;;16.60;99.90;;;;;;5049888;28;20435;-83
2021/05/18 11:02:29;;;;;;;1.27;1.17;;;16.50;99.90;;;;;;5039130;28;20576;-83
2021/05/18 11:05:03;;;;;;;1.63;1.40;;;16.40;99.90;;;;;;5052565;28;20434;-83
2021/05/18 11:07:38;;;;;;;1.90;1.80;;;16.00;99.90;;;;;;5061712;28;20489;-80
2021/05/18 11:10:13;;;;;;;1.30;1.20;;;15.60;99.90;;;;;;5031328;28;20422;-83
2021/05/18 11:12:40;;;;;;;1.50;1.40;;;14.80;99.90;;;;;;5061583;28;20453;-81
2021/05/18 11:15:12;;;;;;;1.40;1.30;;;14.10;99.90;;;;;;5062861;28;20462;-79
2021/05/18 11:17:40;;;;;;;2.60;1.30;;;14.40;99.90;;;;;;5055665;28;20438;-80
2021/05/18 11:20:13;;;;;;;1.50;1.40;;;14.50;99.90;;;;;;5078349;28;20438;-79
2021/05/18 11:25:50;;;;;;;1.77;1.20;;;15.20;99.90;;;;;;5048644;28;20576;-83
2021/05/18 11:28:19;;;;;;;1.63;1.27;;;15.30;99.90;;;;;;5066983;28;20425;-83
2021/05/18 11:30:49;;;;;;;1.40;1.30;;;15.60;99.90;;;;;;5061155;28;20515;-83
2021/05/18 11:33:16;;;;;;;1.60;1.50;;;16.00;99.90;;;;;;5076095;28;20734;-83
2021/05/18 11:35:42;;;;;;;4.00;1.30;;;15.90;99.90;;;;;;5078940;28;20409;-83
2021/05/18 11:38:13;;;;;;;2.33;1.40;;;16.90;99.90;;;;;;5060781;28;20418;-82
2021/05/18 11:40:51;;;;;;;3.03;2.83;;;17.40;99.90;;;;;;5056648;28;20410;-83
2021/05/18 11:43:23;;;;;;;1.70;1.53;;;17.00;99.90;;;;;;5056347;28;20478;-82
2021/05/18 11:46:12;;;;;;;1.70;1.20;;;17.60;99.90;;;;;;5059670;28;20419;-83
2021/05/18 11:48:52;;;;;;;1.73;1.63;;;16.90;99.90;;;;;;5053899;28;20510;-82
2021/05/18 11:51:18;;;;;;;1.30;1.20;;;18.40;99.90;;;;;;5022581;28;20434;-82
2021/05/18 11:53:48;;;;;;;1.30;1.20;;;19.20;99.90;;;;;;5048098;28;20416;-82
2021/05/18 11:56:29;;;;;;;3.53;1.73;;;18.90;99.90;;;;;;5037272;28;20716;-82
2021/05/18 11:59:09;;;;;;;1.37;1.27;;;18.70;99.90;;;;;;5041598;28;20412;-82
2021/05/18 12:01:41;;;;;;;2.30;1.97;;;17.90;99.90;;;;;;5050207;28;20414;-82
2021/05/18 12:04:09;;;;;;;3.70;1.90;;;17.60;99.90;;;;;;5046630;28;20736;-82
2021/05/18 12:06:40;;;;;;;1.43;1.33;;;18.00;99.90;;;;;;5043190;28;20453;-82
2021/05/18 12:09:07;;;;;;;1.60;1.33;;;18.40;99.90;;;;;;5024052;28;20434;-82
2021/05/18 12:11:34;;;;;;;1.93;1.50;;;17.70;99.90;;;;;;5031606;28;20494;-82
2021/05/18 12:14:06;;;;;;;2.70;1.80;;;17.30;99.90;;;;;;5071601;28;20410;-82
2021/05/18 12:16:39;;;;;;;1.67;1.57;;;17.30;99.90;;;;;;5057208;28;20494;-83
2021/05/18 12:19:05;;;;;;;1.73;1.63;;;17.50;99.90;;;;;;5077619;28;20418;-82
2021/05/18 12:21:32;;;;;;;1.50;1.40;;;17.60;99.90;;;;;;5063940;28;20562;-81
2021/05/18 12:24:12;;;;;;;1.53;1.43;;;17.60;99.90;;;;;;5078857;28;20230;-82
2021/05/18 12:26:51;;;;;;;2.87;1.27;;;17.40;99.90;;;;;;5063125;28;20520;-82
2021/05/18 12:29:32;;;;;;;1.57;1.47;;;18.70;99.90;;;;;;5053724;28;20418;-80
2021/05/18 12:32:12;;;;;;;1.63;1.50;;;17.80;99.90;;;;;;5063262;28;20437;-81
2021/05/18 12:34:38;;;;;;;2.33;1.40;;;18.10;99.90;;;;;;5060335;28;20478;-81
2021/05/18 12:37:03;;;;;;;1.73;1.40;;;18.70;99.90;;;;;;5071938;28;20405;-82
2021/05/18 12:39:34;;;;;;;2.00;1.60;;;19.50;99.90;;;;;;5073049;28;20167;-84
2021/05/18 12:42:08;;;;;;;1.90;1.67;;;20.10;99.90;;;;;;5075240;28;20694;-83
2021/05/18 12:44:51;;;;;;;2.37;1.73;;;20.60;99.90;;;;;;5055509;28;20417;-83
2021/05/18 12:47:32;;;;;;;1.73;1.63;;;19.90;99.90;;;;;;5066997;28;20437;-83
2021/05/18 12:49:58;;;;;;;3.73;1.90;;;20.60;99.90;;;;;;5062075;28;20409;-83
2021/05/18 12:52:38;;;;;;;1.60;1.50;;;21.20;99.90;;;;;;5062274;28;20407;-85
2021/05/18 12:55:26;;;;;;;1.67;1.43;;;20.80;99.90;;;;;;5063828;28;20439;-83
2021/05/18 12:57:57;;;;;;;1.70;1.60;;;20.30;99.90;;;;;;5067056;28;20478;-83
2021/05/18 13:00:28;;;;;;;2.13;1.97;;;18.60;99.90;;;;;;5068489;28;20440;-83
2021/05/18 13:02:55;;;;;;;4.07;1.30;;;19.90;99.90;;;;;;5053600;28;20460;-83
2021/05/18 13:05:27;;;;;;;2.63;1.50;;;20.30;96.20;;;;;;5069380;28;20418;-83
2021/05/18 13:08:16;;;;;;;1.60;1.50;;;20.40;93.40;;;;;;5071692;28;20473;-83
2021/05/18 13:11:11;;;;;;;2.17;1.40;;;20.60;95.30;;;;;;5074345;28;20504;-83
2021/05/18 13:13:49;;;;;;;1.40;1.30;;;21.00;90.90;;;;;;5069323;28;20419;-83
2021/05/18 13:16:25;;;;;;;1.67;1.53;;;20.60;89.20;;;;;;5071781;28;20837;-83
2021/05/18 13:18:57;;;;;;;1.63;1.20;;;21.00;92.70;;;;;;5055446;28;20489;-83
2021/05/18 13:21:47;;;;;;;1.40;1.30;;;21.20;88.20;;;;;;5068206;28;20422;-82
2021/05/18 13:26:55;;;;;;;1.73;1.40;;;21.50;86.30;;;;;;5079293;28;20882;-83
2021/05/18 13:29:23;;;;;;;3.83;1.37;;;20.90;91.30;;;;;;5062925;28;20426;-83
2021/05/18 13:31:53;;;;;;;1.50;1.40;;;20.20;91.20;;;;;;5068991;28;20413;-82
2021/05/18 13:34:21;;;;;;;1.80;1.40;;;20.40;87.40;;;;;;5052174;28;20502;-82
2021/05/18 13:36:48;;;;;;;2.47;1.70;;;20.40;86.60;;;;;;5069260;28;20504;-82
2021/05/18 13:39:18;;;;;;;4.37;1.60;;;20.20;94.10;;;;;;5067107;28;20421;-83
2021/05/18 13:41:45;;;;;;;1.70;1.60;;;19.80;92.90;;;;;;5052062;28;20951;-82
2021/05/18 13:44:13;;;;;;;1.73;1.53;;;19.70;91.80;;;;;;5071274;28;20418;-81
2021/05/18 13:46:39;;;;;;;10.27;2.30;;;19.30;94.60;;;;;;5065730;28;20437;-82
2021/05/18 13:49:05;;;;;;;1.97;1.80;;;19.10;95.60;;;;;;5067078;28;20443;-83
2021/05/18 13:51:36;;;;;;;2.70;2.50;;;18.80;97.20;;;;;;5058631;28;20412;-83
2021/05/18 13:54:02;;;;;;;2.03;1.83;;;18.70;98.90;;;;;;5068384;28;20429;-83
2021/05/18 13:56:37;;;;;;;1.80;1.70;;;18.50;99.90;;;;;;5062756;28;20499;-83
2021/05/18 13:59:04;;;;;;;4.40;2.60;;;18.50;99.90;;;;;;5039242;28;20519;-83
2021/05/18 14:01:35;;;;;;;1.83;1.73;;;18.60;99.90;;;;;;5017790;28;20452;-83
2021/05/18 14:04:07;;;;;;;1.70;1.60;;;19.20;99.90;;;;;;5020499;28;20521;-83
2021/05/18 14:06:33;;;;;;;1.40;1.30;;;20.00;98.30;;;;;;4979536;28;20442;-83
2021/05/18 14:08:59;;;;;;;2.03;1.83;;;20.50;96.60;;;;;;4952134;28;20518;-83
2021/05/18 14:11:25;;;;;;;3.27;1.90;;;20.90;93.30;;;;;;4958749;28;20465;-84
2021/05/18 14:13:55;;;;;;;4.67;1.43;;;21.30;90.10;;;;;;4971246;28;20183;-83
2021/05/18 14:16:22;;;;;;;2.40;1.83;;;21.10;90.20;;;;;;4965679;28;20211;-83
2021/05/18 14:18:53;;;;;;;2.10;1.90;;;21.80;90.40;;;;;;4953625;28;20449;-83
2021/05/18 14:21:21;;;;;;;1.50;1.40;;;21.30;89.60;;;;;;4979962;28;20458;-83
2021/05/18 14:24:10;;;;;;;4.00;1.70;;;21.10;95.40;;;;;;4957186;29;20457;-83
2021/05/18 14:26:33;;;;;;;1.93;1.40;;;20.50;98.20;;;;;;4996853;28;20444;-83
2021/05/18 14:28:59;;;;;;;1.80;1.60;;;20.00;97.90;;;;;;5000521;28;20425;-82
2021/05/18 14:31:44;;;;;;;3.60;1.60;;;19.80;99.90;;;;;;5014770;28;20416;-82
2021/05/18 14:34:11;;;;;;;1.77;1.67;;;20.10;99.40;;;;;;4981627;28;20429;-83
2021/05/18 14:36:37;;;;;;;1.80;1.70;;;20.30;99.30;;;;;;4991613;28;20425;-83
2021/05/18 14:39:07;;;;;;;4.13;2.27;;;20.10;99.90;;;;;;5043810;28;20195;-83
2021/05/18 14:44:20;;;;;;;2.57;1.50;;;20.30;99.90;;;;;;5057420;28;20442;-81
2021/05/18 14:55:00;;;;;;;2.30;1.67;;;19.70;99.90;;;;;;5048082;28;20426;-84
2021/05/18 14:57:25;;;;;;;3.27;1.50;;;19.90;99.90;;;;;;5046329;28;20427;-83
2021/05/18 14:59:51;;;;;;;2.07;1.80;;;19.70;99.90;;;;;;5038947;28;20468;-82
2021/05/18 15:02:18;;;;;;;2.83;1.80;;;19.40;99.90;;;;;;5067651;28;20222;-81
2021/05/18 15:04:45;;;;;;;2.00;1.80;;;18.90;99.90;;;;;;5061655;28;20282;-82
2021/05/18 15:07:10;;;;;;;3.00;1.60;;;18.50;99.90;;;;;;5068515;28;20418;-81
2021/05/18 15:09:40;;;;;;;1.53;1.43;;;18.20;99.90;;;;;;5074728;28;20919;-80
2021/05/18 15:12:07;;;;;;;4.10;1.93;;;17.70;99.90;;;;;;5030402;28;20179;-82
2021/05/18 15:14:34;;;;;;;3.10;1.50;;;17.50;99.90;;;;;;5065738;28;20438;-82
2021/05/18 15:17:20;;;;;;;1.97;1.40;;;17.10;99.90;;;;;;5054723;28;20463;-83
2021/05/18 15:19:50;;;;;;;1.40;1.30;;;16.80;99.90;;;;;;5058569;28;20414;-83
2021/05/18 15:22:16;;;;;;;1.60;1.50;;;16.50;99.90;;;;;;5042444;28;20457;-83
2021/05/18 15:24:42;;;;;;;1.40;1.30;;;16.10;99.90;;;;;;5050269;28;20448;-83
2021/05/18 15:27:09;;;;;;;1.23;1.13;;;16.00;99.90;;;;;;5070402;28;20237;-83
2021/05/18 15:29:36;;;;;;;1.50;1.40;;;16.00;99.90;;;;;;5038635;28;20437;-83
2021/05/18 15:32:02;;;;;;;1.57;1.27;;;16.30;99.90;;;;;;5072226;28;20409;-83
2021/05/18 15:34:28;;;;;;;2.13;1.70;;;16.60;99.90;;;;;;5073287;28;20415;-83
2021/05/18 15:36:56;;;;;;;1.80;1.60;;;16.90;99.90;;;;;;5074146;28;20421;-83
2021/05/18 15:39:24;;;;;;;1.57;1.47;;;17.10;99.90;;;;;;5056444;28;20172;-83
2021/05/18 15:41:50;;;;;;;2.10;1.17;;;17.40;99.90;;;;;;5058439;28;20484;-83
2021/05/18 15:44:16;;;;;;;4.10;1.23;;;17.70;99.90;;;;;;5057556;28;20399;-83
2021/05/18 15:46:46;;;;;;;1.50;1.40;;;18.00;99.90;;;;;;5024332;28;20467;-83
2021/05/18 15:49:13;;;;;;;1.47;1.37;;;18.20;99.90;;;;;;5056414;28;20399;-83
2021/05/18 15:51:39;;;;;;;1.30;1.20;;;18.60;99.90;;;;;;5073422;28;20402;-83
2021/05/18 15:54:06;;;;;;;2.40;1.50;;;18.90;99.90;;;;;;5077512;28;20426;-84
2021/05/18 15:56:34;;;;;;;1.67;1.30;;;19.30;99.90;;;;;;5078314;28;20190;-81
2021/05/18 15:59:00;;;;;;;1.60;1.50;;;19.30;99.90;;;;;;5078680;28;20405;-82
2021/05/18 16:01:26;;;;;;;1.70;1.60;;;18.80;99.90;;;;;;5079762;28;20465;-82
2021/05/18 16:03:52;;;;;;;1.30;1.20;;;18.50;99.90;;;;;;5080093;28;20197;-84
2021/05/18 16:06:18;;;;;;;2.10;1.97;;;19.00;99.90;;;;;;5080949;28;20155;-84
2021/05/18 16:08:59;;;;;;;1.60;1.50;;;19.10;99.90;;;;;;5085098;28;20233;-83
2021/05/18 16:11:25;;;;;;;1.30;1.20;;;19.10;99.90;;;;;;5078631;28;20155;-83
2021/05/18 16:13:50;;;;;;;3.80;1.70;;;19.20;99.90;;;;;;5079133;28;20417;-85
2021/05/18 16:16:17;;;;;;;3.50;1.97;;;19.20;99.90;;;;;;5045741;28;20179;-81
2021/05/18 16:18:43;;;;;;;2.20;1.80;;;18.80;99.90;;;;;;5061217;28;20160;-82
2021/05/18 16:21:10;;;;;;;1.80;1.70;;;19.00;99.90;;;;;;5078215;28;20401;-82
2021/05/18 16:23:40;;;;;;;2.93;1.70;;;19.20;99.90;;;;;;5078721;28;20442;-82
2021/05/18 16:26:07;;;;;;;1.77;1.50;;;19.40;99.90;;;;;;5062417;28;20417;-80
2021/05/18 16:28:33;;;;;;;2.13;1.23;;;19.20;99.90;;;;;;5079131;28;20441;-83
2021/05/18 16:30:59;;;;;;;1.60;1.50;;;19.10;99.90;;;;;;5079917;28;20394;-84
2021/05/18 16:33:26;;;;;;;2.27;1.43;;;19.00;99.90;;;;;;5078247;28;20401;-81
2021/05/18 16:35:52;;;;;;;1.40;1.20;;;18.90;99.90;;;;;;5077579;28;20413;-83
2021/05/18 16:38:18;;;;;;;2.17;1.40;;;18.90;99.90;;;;;;5072702;28;20425;-83
2021/05/18 16:40:44;;;;;;;1.30;1.20;;;19.10;99.90;;;;;;5072415;28;20432;-83
2021/05/18 16:43:09;;;;;;;1.30;1.17;;;19.40;99.90;;;;;;5063242;28;20830;-83
2021/05/18 16:45:36;;;;;;;1.47;1.33;;;19.60;99.90;;;;;;5058194;28;20157;-83
2021/05/18 16:48:03;;;;;;;1.53;1.23;;;19.70;99.90;;;;;;5060448;28;20192;-83
2021/05/18 16:50:30;;;;;;;1.20;1.10;;;19.50;99.90;;;;;;5060341;28;20918;-83
2021/05/18 16:52:56;;;;;;;1.23;1.13;;;19.50;99.90;;;;;;5042806;28;20497;-83
2021/05/18 16:55:22;;;;;;;3.90;1.37;;;19.30;99.90;;;;;;5059229;28;20926;-83
2021/05/18 16:57:47;;;;;;;1.30;1.20;;;19.40;99.90;;;;;;5061728;28;20175;-83
2021/05/18 17:00:14;;;;;;;1.33;1.23;;;19.20;99.90;;;;;;5061977;28;20221;-83
2021/05/18 17:02:40;;;;;;;1.30;1.20;;;19.00;99.90;;;;;;5062817;28;20518;-83
2021/05/18 17:05:09;;;;;;;1.43;1.20;;;18.60;99.90;;;;;;5063062;28;20438;-83
2021/05/18 17:07:36;;;;;;;1.50;1.40;;;18.20;99.90;;;;;;5062579;28;20530;-83
2021/05/18 17:10:04;;;;;;;1.70;1.30;;;18.00;99.90;;;;;;5066023;28;20408;-83
2021/05/18 17:12:29;;;;;;;1.50;1.40;;;17.90;99.90;;;;;;5068185;28;20548;-82
2021/05/18 17:14:55;;;;;;;1.27;1.10;;;17.80;99.90;;;;;;5070083;28;20875;-83
2021/05/18 17:17:24;;;;;;;1.30;1.10;;;17.60;99.90;;;;;;5070413;28;20168;-83
2021/05/18 17:19:50;;;;;;;2.60;1.23;;;17.40;99.90;;;;;;5084501;28;20184;-83
2021/05/18 17:22:17;;;;;;;2.80;1.20;;;17.60;99.90;;;;;;5069449;28;20457;-83
2021/05/18 17:24:45;;;;;;;1.67;1.47;;;17.70;99.90;;;;;;5085890;28;20240;-83
2021/05/18 17:27:16;;;;;;;1.30;1.20;;;17.70;99.90;;;;;;5084723;28;20409;-82
2021/05/18 17:29:42;;;;;;;1.73;1.33;;;17.70;99.90;;;;;;5046343;28;20426;-84
2021/05/18 17:32:10;;;;;;;2.03;1.40;;;17.90;99.90;;;;;;5046178;28;20430;-84
2021/05/18 17:34:38;;;;;;;1.30;1.20;;;18.10;99.90;;;;;;5062031;28;20921;-84